createdAt,value
2018-12-26T00:02:21.714Z,7.93
2018-12-26T00:04:47.993Z,9.90
2018-12-26T00:07:14.224Z,9.60
2018-12-26T00:09:40.485Z,8.50
2018-12-26T00:12:06.716Z,8.03
2018-12-26T00:14:33.326Z,7.83
2018-12-26T00:16:59.921Z,8.63
2018-12-26T00:19:26.659Z,8.30
2018-12-26T00:21:52.886Z,8.53
2018-12-26T00:24:19.556Z,8.60
2018-12-26T00:26:46.161Z,7.90
2018-12-26T00:29:12.729Z,8.60
2018-12-26T00:31:38.969Z,7.80
2018-12-26T00:34:05.552Z,10.40
2018-12-26T00:36:32.170Z,9.47
2018-12-26T00:38:58.394Z,10.10
2018-12-26T00:41:24.957Z,8.30
2018-12-26T00:43:51.222Z,9.40
2018-12-26T00:46:17.509Z,7.90
2018-12-26T00:48:44.119Z,8.80
2018-12-26T00:51:10.770Z,9.10
2018-12-26T00:53:37.001Z,8.23
2018-12-26T00:56:10.391Z,7.97
2018-12-26T00:58:31.685Z,8.73
2018-12-26T01:00:58.309Z,8.67
2018-12-26T01:03:25.203Z,9.60
2018-12-26T01:05:51.458Z,8.80
2018-12-26T01:08:17.706Z,8.20
2018-12-26T01:10:43.966Z,8.27
2018-12-26T01:13:10.197Z,8.07
2018-12-26T01:15:36.818Z,9.07
2018-12-26T01:18:03.047Z,8.83
2018-12-26T01:20:29.573Z,9.63
2018-12-26T01:22:58.242Z,9.13
2018-12-26T01:25:24.502Z,9.07
2018-12-26T01:27:51.894Z,9.17
2018-12-26T01:30:18.529Z,8.07
2018-12-26T01:32:45.122Z,8.47
2018-12-26T01:35:11.957Z,10.00
2018-12-26T01:37:38.228Z,9.77
2018-12-26T01:40:04.453Z,8.60
2018-12-26T01:42:31.080Z,7.90
2018-12-26T01:44:57.343Z,9.47
2018-12-26T01:47:23.603Z,8.80
2018-12-26T01:49:49.841Z,10.50
2018-12-26T01:52:16.507Z,8.60
2018-12-26T01:54:42.735Z,10.00
2018-12-26T01:57:09.301Z,9.73
2018-12-26T01:59:35.521Z,8.90
2018-12-26T02:02:02.154Z,10.43
2018-12-26T02:04:29.857Z,10.23
2018-12-26T02:06:56.485Z,9.17
2018-12-26T02:09:22.729Z,9.83
2018-12-26T02:11:49.342Z,9.40
2018-12-26T02:14:15.585Z,9.67
2018-12-26T02:16:41.843Z,10.10
2018-12-26T02:19:08.437Z,9.13
2018-12-26T02:21:34.902Z,9.00
2018-12-26T02:24:01.132Z,9.83
2018-12-26T02:26:36.165Z,8.20
2018-12-26T02:28:56.130Z,8.27
2018-12-26T02:31:22.354Z,9.17
2018-12-26T02:33:48.974Z,10.97
2018-12-26T02:36:15.569Z,9.47
2018-12-26T02:38:42.194Z,9.40
2018-12-26T02:41:08.771Z,10.17
2018-12-26T02:43:35.030Z,9.77
2018-12-26T02:46:01.510Z,9.03
2018-12-26T02:48:28.421Z,9.00
2018-12-26T02:50:54.967Z,8.73
2018-12-26T02:53:21.258Z,9.37
2018-12-26T02:55:47.841Z,9.50
2018-12-26T02:58:14.670Z,8.70
2018-12-26T03:00:40.893Z,8.43
2018-12-26T03:03:07.170Z,8.70
2018-12-26T03:05:33.406Z,8.13
2018-12-26T03:07:59.669Z,7.63
2018-12-26T03:10:26.268Z,8.50
2018-12-26T03:12:52.888Z,9.77
2018-12-26T03:15:19.115Z,9.30
2018-12-26T03:17:45.735Z,7.37
2018-12-26T03:20:12.273Z,7.17
2018-12-26T03:22:38.545Z,7.53
2018-12-26T03:25:04.882Z,8.63
2018-12-26T03:27:31.495Z,7.93
2018-12-26T03:29:58.102Z,9.37
2018-12-26T03:32:24.440Z,7.40
2018-12-26T03:34:50.696Z,8.87
2018-12-26T03:37:17.294Z,10.40
2018-12-26T03:39:43.546Z,10.40
2018-12-26T03:42:10.141Z,8.83
2018-12-26T03:44:37.879Z,7.70
2018-12-26T03:47:04.753Z,8.37
2018-12-26T03:49:31.569Z,10.60
2018-12-26T03:51:57.818Z,8.33
2018-12-26T03:54:24.430Z,8.83
2018-12-26T03:56:50.661Z,7.43
2018-12-26T03:59:17.066Z,8.23
2018-12-26T04:01:43.610Z,7.40
2018-12-26T04:04:10.082Z,7.80
2018-12-26T04:06:36.412Z,7.40
2018-12-26T04:09:04.936Z,7.57
2018-12-26T04:11:31.533Z,8.83
2018-12-26T04:13:57.808Z,7.87
2018-12-26T04:16:25.321Z,9.37
2018-12-26T04:18:51.573Z,7.77
2018-12-26T04:21:18.157Z,8.67
2018-12-26T04:23:44.877Z,8.03
2018-12-26T04:26:11.464Z,6.53
2018-12-26T04:28:38.085Z,7.20
2018-12-26T04:31:04.687Z,7.40
2018-12-26T04:33:30.921Z,6.67
2018-12-26T04:35:57.521Z,8.03
2018-12-26T04:38:24.116Z,7.53
2018-12-26T04:40:50.378Z,8.47
2018-12-26T04:43:16.971Z,7.77
2018-12-26T04:45:43.682Z,9.43
2018-12-26T04:48:10.318Z,7.97
2018-12-26T04:50:36.573Z,7.23
2018-12-26T04:53:03.194Z,8.20
2018-12-26T04:55:29.472Z,7.40
2018-12-26T04:57:55.697Z,7.33
2018-12-26T05:00:22.319Z,7.93
2018-12-26T05:02:48.902Z,7.67
2018-12-26T05:05:15.576Z,8.23
2018-12-26T05:07:42.552Z,9.50
2018-12-26T05:10:08.959Z,9.33
2018-12-26T05:12:35.542Z,9.13
2018-12-26T05:15:02.252Z,8.13
2018-12-26T05:17:28.762Z,8.13
2018-12-26T05:19:55.119Z,8.10
2018-12-26T05:22:21.338Z,7.83
2018-12-26T05:24:47.957Z,8.43
2018-12-26T05:27:14.917Z,8.97
2018-12-26T05:29:41.542Z,6.27
2018-12-26T05:32:08.134Z,8.67
2018-12-26T05:34:34.769Z,7.33
2018-12-26T05:37:01.366Z,8.00
2018-12-26T05:39:27.769Z,6.40
2018-12-26T05:41:53.946Z,8.83
2018-12-26T05:44:20.486Z,7.73
2018-12-26T05:46:47.150Z,6.93
2018-12-26T05:49:14.016Z,6.87
2018-12-26T05:51:40.681Z,9.13
2018-12-26T05:54:06.914Z,9.83
2018-12-26T05:56:33.177Z,7.27
2018-12-26T05:58:59.765Z,7.27
2018-12-26T06:01:26.037Z,6.77
2018-12-26T06:03:52.634Z,7.23
2018-12-26T06:06:20.058Z,6.53
2018-12-26T06:08:46.301Z,6.97
2018-12-26T06:11:12.949Z,6.30
2018-12-26T06:13:39.182Z,6.63
2018-12-26T06:16:05.439Z,6.27
2018-12-26T06:18:31.761Z,7.00
2018-12-26T06:20:58.381Z,6.60
2018-12-26T06:23:24.594Z,6.90
2018-12-26T06:25:50.964Z,6.23
2018-12-26T06:28:17.552Z,7.53
2018-12-26T06:30:44.171Z,6.60
2018-12-26T06:33:10.410Z,7.37
2018-12-26T06:35:37.043Z,6.70
2018-12-26T06:38:03.625Z,6.50
2018-12-26T06:40:29.866Z,6.27
2018-12-26T06:42:56.493Z,6.67
2018-12-26T06:45:22.749Z,6.03
2018-12-26T06:47:49.038Z,6.57
2018-12-26T06:50:15.269Z,6.17
2018-12-26T06:52:41.955Z,6.47
2018-12-26T06:55:08.542Z,5.97
2018-12-26T06:57:35.149Z,6.83
2018-12-26T07:00:03.646Z,6.03
2018-12-26T07:02:30.265Z,6.47
2018-12-26T07:04:56.859Z,5.50
2018-12-26T07:07:23.109Z,6.70
2018-12-26T07:09:49.701Z,5.93
2018-12-26T07:12:15.984Z,6.03
2018-12-26T07:14:42.211Z,6.93
2018-12-26T07:17:08.842Z,7.13
2018-12-26T07:19:35.073Z,5.90
2018-12-26T07:22:01.742Z,5.90
2018-12-26T07:24:28.330Z,6.63
2018-12-26T07:26:54.958Z,6.53
2018-12-26T07:29:21.545Z,7.03
2018-12-26T07:31:47.808Z,6.93
2018-12-26T07:34:14.318Z,5.97
2018-12-26T07:36:40.590Z,6.07
2018-12-26T07:39:07.182Z,6.77
2018-12-26T07:41:33.768Z,6.50
2018-12-26T07:44:00.393Z,7.03
2018-12-26T07:46:27.059Z,7.23
2018-12-26T07:48:53.682Z,6.87
2018-12-26T07:51:20.386Z,5.90
2018-12-26T07:53:46.640Z,6.63
2018-12-26T07:56:13.235Z,6.33
2018-12-26T07:58:39.853Z,6.60
2018-12-26T08:01:06.343Z,5.67
2018-12-26T08:03:32.972Z,7.17
2018-12-26T08:05:59.565Z,6.00
2018-12-26T08:08:26.181Z,6.33
2018-12-26T08:10:52.713Z,6.60
2018-12-26T08:13:19.339Z,5.97
2018-12-26T08:15:45.572Z,5.83
2018-12-26T08:18:12.209Z,6.33
2018-12-26T08:20:38.417Z,6.50
2018-12-26T08:23:05.049Z,5.77
2018-12-26T08:25:31.631Z,6.37
2018-12-26T08:27:57.922Z,6.87
2018-12-26T08:30:24.547Z,6.13
2018-12-26T08:32:50.802Z,7.60
2018-12-26T08:35:17.385Z,7.40
2018-12-26T08:37:43.974Z,6.90
2018-12-26T08:40:10.232Z,5.33
2018-12-26T08:42:36.825Z,5.77
2018-12-26T08:45:03.549Z,6.90
2018-12-26T08:47:30.169Z,6.10
2018-12-26T08:49:56.694Z,7.67
2018-12-26T08:52:22.917Z,7.23
2018-12-26T08:54:49.220Z,7.60
2018-12-26T08:57:15.579Z,6.07
2018-12-26T08:59:42.207Z,7.40
2018-12-26T09:02:08.798Z,5.13
2018-12-26T09:04:35.046Z,5.70
2018-12-26T09:07:01.278Z,5.53
2018-12-26T09:09:27.902Z,6.20
2018-12-26T09:11:54.494Z,6.00
2018-12-26T09:14:20.755Z,6.53
2018-12-26T09:16:47.338Z,6.17
2018-12-26T09:19:13.961Z,5.67
2018-12-26T09:21:40.472Z,6.20
2018-12-26T09:24:06.724Z,5.67
2018-12-26T09:26:33.061Z,6.37
2018-12-26T09:28:59.321Z,5.87
2018-12-26T09:31:25.925Z,5.60
2018-12-26T09:33:52.146Z,6.00
2018-12-26T09:36:18.511Z,6.43
2018-12-26T09:38:44.749Z,6.20
2018-12-26T09:41:11.007Z,5.70
2018-12-26T09:43:37.589Z,5.17
2018-12-26T09:46:04.477Z,5.40
2018-12-26T09:48:31.087Z,6.77
2018-12-26T09:50:57.693Z,6.63
2018-12-26T09:53:24.312Z,6.13
2018-12-26T09:55:50.935Z,5.93
2018-12-26T09:58:17.518Z,6.47
2018-12-26T10:00:43.793Z,6.73
2018-12-26T10:03:10.383Z,6.33
2018-12-26T10:05:36.997Z,5.17
2018-12-26T10:08:03.607Z,6.13
2018-12-26T10:10:30.213Z,5.03
2018-12-26T10:12:56.462Z,5.80
2018-12-26T10:15:23.070Z,6.07
2018-12-26T10:17:49.299Z,6.57
2018-12-26T10:20:15.909Z,5.70
2018-12-26T10:22:42.505Z,5.03
2018-12-26T10:25:09.121Z,5.03
2018-12-26T10:27:36.025Z,5.30
2018-12-26T10:30:03.337Z,6.20
2018-12-26T10:32:29.557Z,5.07
2018-12-26T10:34:55.839Z,5.70
2018-12-26T10:37:22.422Z,6.13
2018-12-26T10:39:49.019Z,7.23
2018-12-26T10:42:15.641Z,5.30
2018-12-26T10:44:42.234Z,5.90
2018-12-26T10:47:08.499Z,6.33
2018-12-26T10:49:35.108Z,6.87
2018-12-26T10:52:01.730Z,6.63
2018-12-26T10:54:28.347Z,6.43
2018-12-26T10:56:54.602Z,6.17
2018-12-26T10:59:20.841Z,6.10
2018-12-26T11:01:47.457Z,7.47
2018-12-26T11:04:13.702Z,6.07
2018-12-26T11:06:40.305Z,6.60
2018-12-26T11:09:06.899Z,6.70
2018-12-26T11:11:33.758Z,6.13
2018-12-26T11:14:00.357Z,6.60
2018-12-26T11:16:26.626Z,5.77
2018-12-26T11:18:53.364Z,6.40
2018-12-26T11:21:19.621Z,6.30
2018-12-26T11:23:45.853Z,5.90
2018-12-26T11:26:12.463Z,6.43
2018-12-26T11:28:39.165Z,6.80
2018-12-26T11:31:05.782Z,6.70
2018-12-26T11:33:31.997Z,5.53
2018-12-26T11:35:58.273Z,7.77
2018-12-26T11:38:24.508Z,5.67
2018-12-26T11:40:51.099Z,6.93
2018-12-26T11:43:17.720Z,6.77
2018-12-26T11:45:44.318Z,6.57
2018-12-26T11:48:10.628Z,7.10
2018-12-26T11:50:37.221Z,6.07
2018-12-26T11:53:04.638Z,5.47
2018-12-26T11:55:31.176Z,5.97
2018-12-26T11:57:57.896Z,6.97
2018-12-26T12:00:24.117Z,5.80
2018-12-26T12:02:50.481Z,7.20
2018-12-26T12:05:17.087Z,8.10
2018-12-26T12:07:43.695Z,6.27
2018-12-26T12:10:09.951Z,6.33
2018-12-26T12:12:36.841Z,6.87
2018-12-26T12:15:03.535Z,7.57
2018-12-26T12:17:30.147Z,6.53
2018-12-26T12:19:56.721Z,5.73
2018-12-26T12:22:22.999Z,6.40
2018-12-26T12:24:49.506Z,6.30
2018-12-26T12:27:16.133Z,6.50
2018-12-26T12:29:42.745Z,7.87
2018-12-26T12:32:08.999Z,7.87
2018-12-26T12:34:35.337Z,7.63
2018-12-26T12:37:01.951Z,6.67
2018-12-26T12:39:28.637Z,6.53
2018-12-26T12:41:54.857Z,6.20
2018-12-26T12:44:21.639Z,6.03
2018-12-26T12:46:48.566Z,6.33
2018-12-26T12:49:15.222Z,7.23
2018-12-26T12:51:41.818Z,5.83
2018-12-26T12:54:08.102Z,6.70
2018-12-26T12:56:34.330Z,6.67
2018-12-26T12:59:00.968Z,7.50
2018-12-26T13:01:27.404Z,6.90
2018-12-26T13:03:53.656Z,7.20
2018-12-26T13:06:20.245Z,7.10
2018-12-26T13:08:46.968Z,7.10
2018-12-26T13:11:13.149Z,5.97
2018-12-26T13:13:39.409Z,6.67
2018-12-26T13:16:06.026Z,6.10
2018-12-26T13:18:32.289Z,6.30
2018-12-26T13:21:00.788Z,6.27
2018-12-26T13:23:27.397Z,6.23
2018-12-26T13:25:53.998Z,5.80
2018-12-26T13:28:20.242Z,6.27
2018-12-26T13:30:46.469Z,5.47
2018-12-26T13:33:12.742Z,5.20
2018-12-26T13:35:39.332Z,5.03
2018-12-26T13:38:05.583Z,5.10
2018-12-26T13:40:32.179Z,5.10
2018-12-26T13:42:58.768Z,5.53
2018-12-26T13:45:25.393Z,5.83
2018-12-26T13:47:52.011Z,5.77
2018-12-26T13:50:18.661Z,4.97
2018-12-26T13:52:45.249Z,5.17
2018-12-26T13:55:11.530Z,5.00
2018-12-26T13:57:38.112Z,4.83
2018-12-26T14:00:07.581Z,5.13
2018-12-26T14:02:33.814Z,5.20
2018-12-26T14:05:00.425Z,5.10
2018-12-26T14:07:27.900Z,4.47
2018-12-26T14:09:54.550Z,4.97
2018-12-26T14:12:21.133Z,5.63
2018-12-26T14:14:47.758Z,5.83
2018-12-26T14:17:14.355Z,4.90
2018-12-26T14:19:40.625Z,5.87
2018-12-26T14:22:07.222Z,5.47
2018-12-26T14:24:33.514Z,5.83
2018-12-26T14:26:59.737Z,5.73
2018-12-26T14:29:26.355Z,6.40
2018-12-26T14:31:52.941Z,6.80
2018-12-26T14:34:19.202Z,6.60
2018-12-26T14:36:45.789Z,6.53
2018-12-26T14:39:12.045Z,6.90
2018-12-26T14:41:38.281Z,6.53
2018-12-26T14:44:04.881Z,6.67
2018-12-26T14:46:31.769Z,7.13
2018-12-26T14:48:58.390Z,7.40
2018-12-26T14:51:26.483Z,6.73
2018-12-26T14:53:52.702Z,7.87
2018-12-26T14:56:19.320Z,7.13
2018-12-26T14:58:45.906Z,7.93
2018-12-26T15:01:12.572Z,7.60
2018-12-26T15:03:39.150Z,6.57
2018-12-26T15:06:05.771Z,7.47
2018-12-26T15:08:32.001Z,7.50
2018-12-26T15:10:58.269Z,7.43
2018-12-26T15:13:24.855Z,6.87
2018-12-26T15:15:51.472Z,7.57
2018-12-26T15:18:18.069Z,7.97
2018-12-26T15:20:44.356Z,7.53
2018-12-26T15:23:10.633Z,7.30
2018-12-26T15:25:36.845Z,7.93
2018-12-26T15:28:03.079Z,8.37
2018-12-26T15:30:29.693Z,8.50
2018-12-26T15:32:56.281Z,9.10
2018-12-26T15:35:22.545Z,8.07
2018-12-26T15:37:49.246Z,8.23
2018-12-26T15:40:15.869Z,9.60
2018-12-26T15:42:42.102Z,8.63
2018-12-26T15:45:08.334Z,8.67
2018-12-26T15:47:34.954Z,9.33
2018-12-26T15:50:01.727Z,9.30
2018-12-26T15:52:27.981Z,9.07
2018-12-26T15:54:54.239Z,10.27
2018-12-26T15:57:20.849Z,10.00
2018-12-26T15:59:47.083Z,9.50
2018-12-26T16:02:13.802Z,9.07
2018-12-26T16:04:40.382Z,9.87
2018-12-26T16:07:07.001Z,10.13
2018-12-26T16:09:33.586Z,8.63
2018-12-26T16:12:01.970Z,9.47
2018-12-26T16:14:28.557Z,9.57
2018-12-26T16:16:55.227Z,10.10
2018-12-26T16:19:21.761Z,9.93
2018-12-26T16:21:48.361Z,9.77
2018-12-26T16:24:14.958Z,10.60
2018-12-26T16:26:41.230Z,9.10
2018-12-26T16:29:07.453Z,9.20
2018-12-26T16:31:33.707Z,9.27
2018-12-26T16:34:00.315Z,9.10
2018-12-26T16:36:26.930Z,9.30
2018-12-26T16:38:53.154Z,8.60
2018-12-26T16:41:19.749Z,9.70
2018-12-26T16:43:46.370Z,8.13
2018-12-26T16:46:12.665Z,10.00
2018-12-26T16:48:39.244Z,9.00
2018-12-26T16:51:05.506Z,9.00
2018-12-26T16:53:32.137Z,8.73
2018-12-26T16:55:58.406Z,9.73
2018-12-26T16:58:24.670Z,8.73
2018-12-26T17:00:55.015Z,9.50
2018-12-26T17:03:19.340Z,9.13
2018-12-26T17:05:45.603Z,10.63
2018-12-26T17:08:12.227Z,10.17
2018-12-26T17:10:38.807Z,9.93
2018-12-26T17:13:05.428Z,9.73
2018-12-26T17:15:31.749Z,9.93
2018-12-26T17:17:58.366Z,10.37
2018-12-26T17:20:25.046Z,10.07
2018-12-26T17:22:51.317Z,10.43
2018-12-26T17:25:17.550Z,10.70
2018-12-26T17:27:44.171Z,9.47
2018-12-26T17:30:10.395Z,9.60
2018-12-26T17:32:37.012Z,9.40
2018-12-26T17:35:03.906Z,9.20
2018-12-26T17:37:30.509Z,9.20
2018-12-26T17:39:56.733Z,8.73
2018-12-26T17:42:23.719Z,9.77
2018-12-26T17:44:49.950Z,8.60
2018-12-26T17:47:16.556Z,11.00
2018-12-26T17:49:43.193Z,10.63
2018-12-26T17:52:09.761Z,10.97
2018-12-26T17:54:39.018Z,9.83
2018-12-26T17:57:05.629Z,9.60
2018-12-26T17:59:38.826Z,9.70
2018-12-26T18:02:08.893Z,11.67
2018-12-26T18:04:35.155Z,9.90
2018-12-26T18:07:01.393Z,9.50
2018-12-26T18:09:27.653Z,8.63
2018-12-26T18:11:54.242Z,9.70
2018-12-26T18:14:20.845Z,9.73
2018-12-26T18:16:47.434Z,9.73
2018-12-26T18:19:14.054Z,8.80
2018-12-26T18:21:40.637Z,10.57
2018-12-26T18:24:07.257Z,10.53
2018-12-26T18:26:33.487Z,9.40
2018-12-26T18:28:59.762Z,8.70
2018-12-26T18:31:26.345Z,9.70
2018-12-26T18:33:52.583Z,11.43
2018-12-26T18:36:19.186Z,9.37
2018-12-26T18:38:45.503Z,9.10
2018-12-26T18:41:12.030Z,10.27
2018-12-26T18:43:38.314Z,9.10
2018-12-26T18:46:04.508Z,8.80
2018-12-26T18:48:31.179Z,9.87
2018-12-26T18:50:57.806Z,9.20
2018-12-26T18:53:24.042Z,9.40
2018-12-26T18:55:50.694Z,9.43
2018-12-26T18:58:17.283Z,10.40
2018-12-26T19:00:43.547Z,10.23
2018-12-26T19:03:10.049Z,8.73
2018-12-26T19:05:36.327Z,8.73
2018-12-26T19:08:02.913Z,9.50
2018-12-26T19:10:29.181Z,9.47
2018-12-26T19:12:55.408Z,9.10
2018-12-26T19:15:21.658Z,8.67
2018-12-26T19:17:47.897Z,9.97
2018-12-26T19:20:14.510Z,8.80
2018-12-26T19:22:41.098Z,8.77
2018-12-26T19:25:07.359Z,8.67
2018-12-26T19:27:33.582Z,10.20
2018-12-26T19:30:00.210Z,10.30
2018-12-26T19:32:26.451Z,10.17
2018-12-26T19:34:53.342Z,9.20
2018-12-26T19:37:20.229Z,9.23
2018-12-26T19:39:46.855Z,9.10
2018-12-26T19:42:13.085Z,10.50
2018-12-26T19:44:39.321Z,8.03
2018-12-26T19:47:06.225Z,8.70
2018-12-26T19:49:32.511Z,9.57
2018-12-26T19:51:59.147Z,9.33
2018-12-26T19:54:25.370Z,9.40
2018-12-26T19:56:52.013Z,8.57
2018-12-26T19:59:18.606Z,8.33
2018-12-26T20:01:48.319Z,7.10
2018-12-26T20:04:13.249Z,8.87
2018-12-26T20:06:39.868Z,7.97
2018-12-26T20:09:06.465Z,9.57
2018-12-26T20:11:32.717Z,9.37
2018-12-26T20:13:59.298Z,9.07
2018-12-26T20:16:25.909Z,9.40
2018-12-26T20:18:52.493Z,8.13
2018-12-26T20:21:18.753Z,8.60
2018-12-26T20:23:45.601Z,9.33
2018-12-26T20:26:12.212Z,8.53
2018-12-26T20:28:38.818Z,8.17
2018-12-26T20:31:05.533Z,9.17
2018-12-26T20:33:31.782Z,8.27
2018-12-26T20:35:58.138Z,8.00
2018-12-26T20:38:24.370Z,8.17
2018-12-26T20:40:50.711Z,7.87
2018-12-26T20:43:17.273Z,7.93
2018-12-26T20:45:43.509Z,8.50
2018-12-26T20:48:10.133Z,7.97
2018-12-26T20:50:36.393Z,9.57
2018-12-26T20:53:03.015Z,7.77
2018-12-26T20:55:29.269Z,8.20
2018-12-26T20:57:55.899Z,7.93
2018-12-26T21:00:22.481Z,7.97
2018-12-26T21:02:49.116Z,8.40
2018-12-26T21:05:15.345Z,9.07
2018-12-26T21:07:41.958Z,7.53
2018-12-26T21:10:08.653Z,8.20
2018-12-26T21:12:35.272Z,8.30
2018-12-26T21:15:01.512Z,7.77
2018-12-26T21:17:28.134Z,7.47
2018-12-26T21:19:54.720Z,6.77
2018-12-26T21:22:20.983Z,7.77
2018-12-26T21:24:47.568Z,7.23
2018-12-26T21:27:13.819Z,6.63
2018-12-26T21:29:40.057Z,7.87
2018-12-26T21:32:14.009Z,7.37
2018-12-26T21:34:34.710Z,8.33
2018-12-26T21:37:01.321Z,8.87
2018-12-26T21:39:27.545Z,7.40
2018-12-26T21:41:54.137Z,6.67
2018-12-26T21:44:20.748Z,7.53
2018-12-26T21:46:47.341Z,8.20
2018-12-26T21:49:13.961Z,7.40
2018-12-26T21:51:40.573Z,7.40
2018-12-26T21:54:06.834Z,7.37
2018-12-26T21:56:35.485Z,7.80
2018-12-26T21:59:02.047Z,7.90
2018-12-26T22:01:28.266Z,8.20
2018-12-26T22:03:54.896Z,7.97
2018-12-26T22:06:21.134Z,7.80
2018-12-26T22:08:47.384Z,7.70
2018-12-26T22:11:13.989Z,7.17
2018-12-26T22:13:40.616Z,7.43
2018-12-26T22:16:06.750Z,7.13
2018-12-26T22:18:33.385Z,7.03
2018-12-26T22:20:59.598Z,6.47
2018-12-26T22:23:25.861Z,7.30
2018-12-26T22:25:52.448Z,6.80
2018-12-26T22:28:19.062Z,6.60
2018-12-26T22:30:45.654Z,7.10
2018-12-26T22:33:12.269Z,8.40
2018-12-26T22:35:38.501Z,8.07
2018-12-26T22:38:04.844Z,8.13
2018-12-26T22:40:31.090Z,7.93
2018-12-26T22:42:57.682Z,7.77
2018-12-26T22:45:24.298Z,7.20
2018-12-26T22:47:50.526Z,6.73
2018-12-26T22:50:16.803Z,7.43
2018-12-26T22:52:43.441Z,7.47
2018-12-26T22:55:09.701Z,7.30
2018-12-26T22:57:36.330Z,7.63
2018-12-26T23:00:04.847Z,7.03
2018-12-26T23:02:38.655Z,6.80
2018-12-26T23:04:59.513Z,7.20
2018-12-26T23:07:25.749Z,6.83
2018-12-26T23:09:52.417Z,6.63
2018-12-26T23:12:18.650Z,6.47
2018-12-26T23:14:44.914Z,6.73
2018-12-26T23:17:11.501Z,6.70
2018-12-26T23:19:38.114Z,6.93
2018-12-26T23:22:04.354Z,6.97
2018-12-26T23:24:30.605Z,6.60
2018-12-26T23:26:56.849Z,6.53
2018-12-26T23:29:23.357Z,6.70
2018-12-26T23:31:49.594Z,5.90
2018-12-26T23:34:15.819Z,6.13
2018-12-26T23:36:42.083Z,6.40
2018-12-26T23:39:08.309Z,5.40
2018-12-26T23:41:34.574Z,5.80
2018-12-26T23:44:01.163Z,5.63
2018-12-26T23:46:27.781Z,5.47
2018-12-26T23:48:54.369Z,5.40
2018-12-26T23:51:20.645Z,5.87
2018-12-26T23:53:46.978Z,5.00
2018-12-26T23:56:13.635Z,5.63
2018-12-26T23:58:40.221Z,5.23
